createdAt,value
2018-09-26T00:02:09.853Z,99.90
2018-09-26T00:07:12.955Z,99.90
2018-09-26T00:12:16.044Z,99.90
2018-09-26T00:17:19.297Z,99.90
2018-09-26T00:22:22.347Z,99.90
2018-09-26T00:27:28.911Z,99.90
2018-09-26T00:32:31.971Z,99.90
2018-09-26T00:37:35.051Z,99.90
2018-09-26T00:42:38.112Z,99.90
2018-09-26T00:47:41.131Z,99.90
2018-09-26T00:52:44.394Z,99.90
2018-09-26T00:57:47.432Z,99.90
2018-09-26T01:02:50.487Z,99.90
2018-09-26T01:07:53.536Z,99.90
2018-09-26T01:12:56.700Z,99.90
2018-09-26T01:17:59.851Z,99.90
2018-09-26T01:23:02.868Z,99.90
2018-09-26T01:28:06.059Z,99.90
2018-09-26T01:33:09.130Z,99.90
2018-09-26T01:38:12.189Z,99.90
2018-09-26T01:43:15.372Z,99.90
2018-09-26T01:48:18.415Z,99.90
2018-09-26T01:53:21.451Z,99.90
2018-09-26T01:58:24.504Z,99.90
2018-09-26T02:03:27.536Z,99.90
2018-09-26T02:08:30.590Z,99.90
2018-09-26T02:13:33.625Z,99.90
2018-09-26T02:18:36.730Z,99.90
2018-09-26T02:23:39.782Z,99.90
2018-09-26T02:28:42.787Z,99.90
2018-09-26T02:33:45.841Z,99.90
2018-09-26T02:38:48.904Z,99.90
2018-09-26T02:43:51.956Z,99.90
2018-09-26T02:49:00.543Z,99.90
2018-09-26T02:54:03.646Z,99.90
2018-09-26T02:59:06.753Z,99.90
2018-09-26T03:04:09.896Z,99.90
2018-09-26T03:09:12.965Z,99.90
2018-09-26T03:14:16.067Z,99.90
2018-09-26T03:19:19.275Z,99.90
2018-09-26T03:24:22.419Z,99.90
2018-09-26T03:29:25.457Z,99.90
2018-09-26T03:34:28.480Z,99.90
2018-09-26T03:39:31.625Z,99.90
2018-09-26T03:44:34.678Z,99.90
2018-09-26T03:49:37.737Z,99.90
2018-09-26T03:54:40.779Z,99.90
2018-09-26T03:59:43.811Z,99.90
2018-09-26T04:04:46.924Z,99.90
2018-09-26T04:09:49.998Z,99.90
2018-09-26T04:14:53.077Z,99.90
2018-09-26T04:19:56.132Z,99.90
2018-09-26T04:24:59.227Z,99.90
2018-09-26T04:30:02.319Z,99.90
2018-09-26T04:35:07.077Z,99.90
2018-09-26T04:40:10.127Z,99.90
2018-09-26T04:45:13.180Z,99.90
2018-09-26T04:50:16.246Z,99.90
2018-09-26T04:55:19.290Z,99.90
2018-09-26T05:00:22.374Z,99.90
2018-09-26T05:05:25.399Z,99.90
2018-09-26T05:10:28.505Z,99.90
2018-09-26T05:15:37.932Z,99.90
2018-09-26T05:20:40.990Z,99.90
2018-09-26T05:25:44.020Z,99.90
2018-09-26T05:30:47.089Z,99.90
2018-09-26T05:35:52.386Z,99.90
2018-09-26T05:40:55.436Z,99.90
2018-09-26T05:45:58.571Z,99.90
2018-09-26T05:51:01.660Z,99.90
2018-09-26T05:56:04.760Z,99.90
2018-09-26T06:01:07.792Z,99.90
2018-09-26T06:06:10.875Z,99.90
2018-09-26T06:11:13.935Z,99.90
2018-09-26T06:16:17.009Z,99.90
2018-09-26T06:21:20.296Z,99.90
2018-09-26T06:26:23.318Z,99.90
2018-09-26T06:31:26.388Z,99.90
2018-09-26T06:36:29.460Z,99.90
2018-09-26T06:41:34.154Z,99.90
2018-09-26T06:46:37.176Z,99.90
2018-09-26T06:51:40.188Z,99.90
2018-09-26T06:56:47.442Z,99.90
2018-09-26T07:01:50.577Z,99.90
2018-09-26T07:06:53.625Z,99.90
2018-09-26T07:11:56.653Z,99.90
2018-09-26T07:16:59.699Z,99.90
2018-09-26T07:22:02.891Z,99.90
2018-09-26T07:27:05.896Z,99.90
2018-09-26T07:32:09.011Z,99.90
2018-09-26T07:37:12.138Z,99.90
2018-09-26T07:42:15.989Z,99.90
2018-09-26T07:47:19.058Z,99.90
2018-09-26T07:52:22.115Z,99.90
2018-09-26T07:57:25.219Z,99.90
2018-09-26T08:02:28.276Z,99.90
2018-09-26T08:07:31.339Z,99.90
2018-09-26T08:12:34.545Z,97.50
2018-09-26T08:17:37.596Z,96.10
2018-09-26T08:22:40.721Z,94.80
2018-09-26T08:27:43.887Z,93.70
2018-09-26T08:32:46.974Z,94.40
2018-09-26T08:37:50.128Z,94.90
2018-09-26T08:42:53.199Z,94.50
2018-09-26T08:47:56.332Z,95.10
2018-09-26T08:52:59.448Z,95.00
2018-09-26T08:58:02.802Z,92.80
2018-09-26T09:03:07.186Z,93.00
2018-09-26T09:08:10.297Z,92.70
2018-09-26T09:13:13.550Z,93.40
2018-09-26T09:18:16.727Z,93.80
2018-09-26T09:23:19.949Z,93.20
2018-09-26T09:28:23.193Z,92.30
2018-09-26T09:33:26.503Z,92.40
2018-09-26T09:38:29.572Z,92.00
2018-09-26T09:43:32.682Z,91.20
2018-09-26T09:48:36.108Z,91.20
2018-09-26T09:53:39.274Z,90.70
2018-09-26T09:58:42.311Z,90.60
2018-09-26T10:03:45.369Z,88.20
2018-09-26T10:08:48.476Z,89.80
2018-09-26T10:13:51.504Z,89.80
2018-09-26T10:18:54.528Z,87.40
2018-09-26T10:23:57.582Z,86.20
2018-09-26T10:29:00.687Z,86.50
2018-09-26T10:34:03.780Z,85.40
2018-09-26T10:39:07.876Z,84.50
2018-09-26T10:44:10.990Z,83.10
2018-09-26T10:49:14.003Z,82.90
2018-09-26T10:54:17.144Z,81.40
2018-09-26T10:59:20.239Z,80.20
2018-09-26T11:04:23.342Z,81.00
2018-09-26T11:09:26.414Z,81.30
2018-09-26T11:14:29.516Z,81.60
2018-09-26T11:19:32.565Z,82.80
2018-09-26T11:24:35.686Z,83.10
2018-09-26T11:29:42.413Z,81.50
2018-09-26T11:34:45.517Z,83.10
2018-09-26T11:39:48.615Z,81.30
2018-09-26T11:44:51.763Z,81.40
2018-09-26T11:49:54.737Z,81.50
2018-09-26T11:54:57.768Z,81.50
2018-09-26T12:00:00.807Z,80.70
2018-09-26T12:05:03.887Z,79.40
2018-09-26T12:10:06.962Z,80.50
2018-09-26T12:15:10.211Z,80.10
2018-09-26T12:20:13.320Z,77.70
2018-09-26T12:25:16.433Z,75.60
2018-09-26T12:30:19.483Z,76.30
2018-09-26T12:35:22.547Z,75.90
2018-09-26T12:40:25.691Z,75.30
2018-09-26T12:45:29.224Z,76.00
2018-09-26T12:50:32.264Z,75.70
2018-09-26T12:55:35.627Z,74.90
2018-09-26T13:00:38.728Z,74.20
2018-09-26T13:05:41.751Z,74.20
2018-09-26T13:10:44.777Z,74.70
2018-09-26T13:15:47.961Z,72.00
2018-09-26T13:20:51.075Z,73.00
2018-09-26T13:25:54.088Z,71.70
2018-09-26T13:30:57.128Z,72.00
2018-09-26T13:36:00.191Z,72.40
2018-09-26T13:41:03.208Z,72.80
2018-09-26T13:46:06.277Z,71.90
2018-09-26T13:51:09.298Z,72.40
2018-09-26T13:56:12.397Z,71.20
2018-09-26T14:01:15.563Z,71.70
2018-09-26T14:06:18.611Z,72.20
2018-09-26T14:11:21.637Z,71.80
2018-09-26T14:16:24.680Z,70.60
2018-09-26T14:21:37.010Z,70.90
2018-09-26T14:26:40.316Z,71.80
2018-09-26T14:31:43.644Z,71.80
2018-09-26T14:36:47.063Z,71.70
2018-09-26T14:41:50.416Z,70.50
2018-09-26T14:46:53.759Z,70.90
2018-09-26T14:51:57.105Z,70.80
2018-09-26T14:57:00.439Z,71.70
2018-09-26T15:02:03.756Z,71.00
2018-09-26T15:07:07.083Z,72.00
2018-09-26T15:12:10.511Z,69.90
2018-09-26T15:17:13.993Z,69.90
2018-09-26T15:22:17.481Z,71.00
2018-09-26T15:27:20.847Z,72.00
2018-09-26T15:32:24.314Z,72.50
2018-09-26T15:37:27.572Z,71.90
2018-09-26T15:42:30.920Z,72.50
2018-09-26T15:47:34.274Z,73.00
2018-09-26T15:52:38.654Z,72.80
2018-09-26T15:57:41.977Z,73.60
2018-09-26T16:02:45.240Z,73.60
2018-09-26T16:07:48.239Z,74.00
2018-09-26T16:12:51.426Z,74.60
2018-09-26T16:17:55.377Z,74.60
2018-09-26T16:22:58.558Z,75.10
2018-09-26T16:28:01.595Z,75.80
2018-09-26T16:33:04.656Z,76.20
2018-09-26T16:38:07.753Z,76.50
2018-09-26T16:43:10.835Z,77.40
2018-09-26T16:48:13.943Z,77.50
2018-09-26T16:53:16.948Z,78.00
2018-09-26T16:58:20.088Z,78.90
2018-09-26T17:03:23.056Z,78.90
2018-09-26T17:08:26.192Z,79.00
2018-09-26T17:13:30.391Z,80.00
2018-09-26T17:18:33.499Z,80.90
2018-09-26T17:23:36.606Z,82.50
2018-09-26T17:28:39.838Z,82.80
2018-09-26T17:33:45.377Z,83.60
2018-09-26T17:38:48.494Z,84.50
2018-09-26T17:43:51.553Z,85.00
2018-09-26T17:48:54.711Z,84.20
2018-09-26T17:53:57.908Z,84.00
2018-09-26T17:59:00.957Z,83.70
2018-09-26T18:04:03.998Z,83.70
2018-09-26T18:09:09.446Z,82.50
2018-09-26T18:14:12.468Z,82.30
2018-09-26T18:19:15.646Z,82.40
2018-09-26T18:24:18.773Z,81.60
2018-09-26T18:29:21.895Z,82.00
2018-09-26T18:34:25.103Z,82.00
2018-09-26T18:39:29.415Z,81.70
2018-09-26T18:44:32.543Z,81.80
2018-09-26T18:49:36.319Z,81.20
2018-09-26T18:54:41.422Z,81.10
2018-09-26T18:59:44.598Z,81.00
2018-09-26T19:04:48.007Z,81.10
2018-09-26T19:09:51.173Z,81.40
2018-09-26T19:14:54.363Z,81.40
2018-09-26T19:19:57.392Z,81.60
2018-09-26T19:25:00.480Z,81.80
2018-09-26T19:30:03.581Z,82.60
2018-09-26T19:35:06.701Z,82.10
2018-09-26T19:40:09.796Z,82.30
2018-09-26T19:45:12.823Z,81.70
2018-09-26T19:50:18.490Z,81.90
2018-09-26T19:55:21.995Z,82.10
2018-09-26T20:00:25.082Z,82.30
2018-09-26T20:05:28.135Z,83.00
2018-09-26T20:10:31.189Z,82.10
2018-09-26T20:15:34.232Z,82.80
2018-09-26T20:20:37.286Z,83.50
2018-09-26T20:25:40.366Z,83.60
2018-09-26T20:30:43.437Z,84.00
2018-09-26T20:35:46.481Z,84.30
2018-09-26T20:40:49.602Z,84.20
2018-09-26T20:45:52.624Z,84.60
2018-09-26T20:50:55.652Z,84.90
2018-09-26T20:55:58.694Z,85.30
2018-09-26T21:01:01.803Z,85.30
2018-09-26T21:06:04.890Z,85.60
2018-09-26T21:11:07.919Z,86.50
2018-09-26T21:16:10.985Z,86.50
2018-09-26T21:21:14.093Z,87.20
2018-09-26T21:26:17.131Z,86.80
2018-09-26T21:31:20.389Z,86.90
2018-09-26T21:36:23.301Z,87.00
2018-09-26T21:41:26.404Z,87.40
2018-09-26T21:46:29.463Z,87.10
2018-09-26T21:51:32.559Z,87.80
2018-09-26T21:56:35.692Z,88.10
2018-09-26T22:01:38.726Z,88.70
2018-09-26T22:06:41.732Z,89.50
2018-09-26T22:11:44.779Z,90.20
2018-09-26T22:16:47.840Z,89.80
2018-09-26T22:21:50.872Z,90.00
2018-09-26T22:26:53.937Z,90.30
2018-09-26T22:31:57.031Z,90.00
2018-09-26T22:37:00.072Z,90.20
2018-09-26T22:42:03.372Z,90.00
2018-09-26T22:47:06.392Z,90.10
2018-09-26T22:52:09.494Z,90.10
2018-09-26T22:57:12.536Z,90.20
2018-09-26T23:02:15.580Z,90.20
2018-09-26T23:07:18.599Z,90.20
2018-09-26T23:12:21.620Z,90.20
2018-09-26T23:17:24.900Z,90.30
2018-09-26T23:22:27.936Z,90.60
2018-09-26T23:27:31.096Z,90.80
2018-09-26T23:32:34.119Z,90.80
2018-09-26T23:37:37.210Z,91.10
2018-09-26T23:42:40.244Z,91.60
2018-09-26T23:47:43.275Z,91.80
2018-09-26T23:52:46.360Z,92.30
2018-09-26T23:57:49.444Z,92.50
